sensor_id;sensor_type;location;lat;lon;timestamp;P1;durP1;ratioP1;P2;durP2;ratioP2
15635;SDS011;7917;50.818;6.972;2024-03-02T00:00:22;4.65;;;2.63;;
15635;SDS011;7917;50.818;6.972;2024-03-02T00:02:50;3.50;;;2.70;;
15635;SDS011;7917;50.818;6.972;2024-03-02T00:05:18;3.40;;;2.33;;
15635;SDS011;7917;50.818;6.972;2024-03-02T00:07:46;3.00;;;2.30;;
15635;SDS011;7917;50.818;6.972;2024-03-02T00:10:19;2.55;;;2.35;;
15635;SDS011;7917;50.818;6.972;2024-03-02T00:12:51;4.82;;;2.65;;
15635;SDS011;7917;50.818;6.972;2024-03-02T00:15:25;3.78;;;2.67;;
15635;SDS011;7917;50.818;6.972;2024-03-02T00:18:06;3.05;;;2.63;;
15635;SDS011;7917;50.818;6.972;2024-03-02T00:20:33;3.13;;;2.35;;
15635;SDS011;7917;50.818;6.972;2024-03-02T00:23:01;3.78;;;2.30;;
15635;SDS011;7917;50.818;6.972;2024-03-02T00:25:34;3.15;;;2.17;;
15635;SDS011;7917;50.818;6.972;2024-03-02T00:28:11;3.45;;;2.45;;
15635;SDS011;7917;50.818;6.972;2024-03-02T00:33:24;4.18;;;2.53;;
15635;SDS011;7917;50.818;6.972;2024-03-02T00:35:53;3.08;;;2.47;;
15635;SDS011;7917;50.818;6.972;2024-03-02T00:38:20;3.30;;;2.17;;
15635;SDS011;7917;50.818;6.972;2024-03-02T00:40:47;5.13;;;2.05;;
15635;SDS011;7917;50.818;6.972;2024-03-02T00:43:23;2.63;;;2.40;;
15635;SDS011;7917;50.818;6.972;2024-03-02T00:46:09;3.05;;;2.50;;
15635;SDS011;7917;50.818;6.972;2024-03-02T00:48:38;3.88;;;2.30;;
15635;SDS011;7917;50.818;6.972;2024-03-02T00:51:05;5.60;;;1.95;;
15635;SDS011;7917;50.818;6.972;2024-03-02T00:53:32;3.90;;;2.30;;
15635;SDS011;7917;50.818;6.972;2024-03-02T00:55:59;4.18;;;2.50;;
15635;SDS011;7917;50.818;6.972;2024-03-02T00:58:27;2.92;;;1.98;;
15635;SDS011;7917;50.818;6.972;2024-03-02T01:00:53;2.38;;;2.13;;
15635;SDS011;7917;50.818;6.972;2024-03-02T01:03:20;2.83;;;2.30;;
15635;SDS011;7917;50.818;6.972;2024-03-02T01:05:47;3.10;;;2.05;;
15635;SDS011;7917;50.818;6.972;2024-03-02T01:08:13;3.88;;;2.40;;
15635;SDS011;7917;50.818;6.972;2024-03-02T01:10:40;4.25;;;2.42;;
15635;SDS011;7917;50.818;6.972;2024-03-02T01:13:06;2.78;;;2.38;;
15635;SDS011;7917;50.818;6.972;2024-03-02T01:15:37;3.00;;;2.33;;
15635;SDS011;7917;50.818;6.972;2024-03-02T01:18:03;2.05;;;1.85;;
15635;SDS011;7917;50.818;6.972;2024-03-02T01:20:31;3.75;;;2.00;;
15635;SDS011;7917;50.818;6.972;2024-03-02T01:22:57;4.18;;;2.30;;
15635;SDS011;7917;50.818;6.972;2024-03-02T01:25:28;2.58;;;2.05;;
15635;SDS011;7917;50.818;6.972;2024-03-02T01:27:54;2.08;;;1.70;;
15635;SDS011;7917;50.818;6.972;2024-03-02T01:30:21;2.47;;;2.13;;
15635;SDS011;7917;50.818;6.972;2024-03-02T01:32:48;4.25;;;2.40;;
15635;SDS011;7917;50.818;6.972;2024-03-02T01:35:14;3.67;;;2.13;;
15635;SDS011;7917;50.818;6.972;2024-03-02T01:37:44;4.47;;;2.00;;
15635;SDS011;7917;50.818;6.972;2024-03-02T01:40:11;2.28;;;2.00;;
15635;SDS011;7917;50.818;6.972;2024-03-02T01:42:38;2.42;;;1.98;;
15635;SDS011;7917;50.818;6.972;2024-03-02T01:45:05;2.50;;;1.75;;
15635;SDS011;7917;50.818;6.972;2024-03-02T01:47:33;3.22;;;2.10;;
15635;SDS011;7917;50.818;6.972;2024-03-02T01:50:00;2.67;;;2.03;;
15635;SDS011;7917;50.818;6.972;2024-03-02T01:55:43;2.97;;;2.03;;
15635;SDS011;7917;50.818;6.972;2024-03-02T01:58:12;2.47;;;2.00;;
15635;SDS011;7917;50.818;6.972;2024-03-02T02:00:39;2.90;;;1.95;;
15635;SDS011;7917;50.818;6.972;2024-03-02T02:03:06;2.55;;;1.90;;
15635;SDS011;7917;50.818;6.972;2024-03-02T02:05:33;2.40;;;1.70;;
15635;SDS011;7917;50.818;6.972;2024-03-02T02:08:02;3.13;;;2.33;;
15635;SDS011;7917;50.818;6.972;2024-03-02T02:10:29;3.17;;;1.90;;
15635;SDS011;7917;50.818;6.972;2024-03-02T02:12:56;2.72;;;2.08;;
15635;SDS011;7917;50.818;6.972;2024-03-02T02:15:26;3.50;;;1.80;;
15635;SDS011;7917;50.818;6.972;2024-03-02T02:17:56;4.40;;;2.13;;
15635;SDS011;7917;50.818;6.972;2024-03-02T02:20:24;5.20;;;1.67;;
15635;SDS011;7917;50.818;6.972;2024-03-02T02:22:55;3.97;;;2.35;;
15635;SDS011;7917;50.818;6.972;2024-03-02T02:25:21;2.55;;;1.80;;
15635;SDS011;7917;50.818;6.972;2024-03-02T02:27:48;2.70;;;1.88;;
15635;SDS011;7917;50.818;6.972;2024-03-02T02:30:18;1.70;;;1.60;;
15635;SDS011;7917;50.818;6.972;2024-03-02T02:32:45;2.90;;;1.95;;
15635;SDS011;7917;50.818;6.972;2024-03-02T02:35:11;4.18;;;1.85;;
15635;SDS011;7917;50.818;6.972;2024-03-02T02:37:38;3.80;;;1.60;;
15635;SDS011;7917;50.818;6.972;2024-03-02T02:40:08;2.53;;;1.70;;
15635;SDS011;7917;50.818;6.972;2024-03-02T02:42:36;2.88;;;2.05;;
15635;SDS011;7917;50.818;6.972;2024-03-02T02:45:03;2.40;;;1.85;;
15635;SDS011;7917;50.818;6.972;2024-03-02T02:47:30;4.43;;;1.92;;
15635;SDS011;7917;50.818;6.972;2024-03-02T02:50:03;2.60;;;2.05;;
15635;SDS011;7917;50.818;6.972;2024-03-02T02:52:34;4.22;;;1.63;;
15635;SDS011;7917;50.818;6.972;2024-03-02T02:55:03;2.03;;;1.70;;
15635;SDS011;7917;50.818;6.972;2024-03-02T02:57:31;2.58;;;1.70;;
15635;SDS011;7917;50.818;6.972;2024-03-02T03:00:04;2.03;;;1.83;;
15635;SDS011;7917;50.818;6.972;2024-03-02T03:02:35;1.70;;;1.52;;
15635;SDS011;7917;50.818;6.972;2024-03-02T03:05:04;2.45;;;1.83;;
15635;SDS011;7917;50.818;6.972;2024-03-02T03:07:34;2.72;;;1.63;;
15635;SDS011;7917;50.818;6.972;2024-03-02T03:10:01;2.20;;;1.90;;
15635;SDS011;7917;50.818;6.972;2024-03-02T03:12:29;4.55;;;1.80;;
15635;SDS011;7917;50.818;6.972;2024-03-02T03:14:57;4.25;;;1.90;;
15635;SDS011;7917;50.818;6.972;2024-03-02T03:17:23;2.60;;;1.58;;
15635;SDS011;7917;50.818;6.972;2024-03-02T03:19:50;2.00;;;1.73;;
15635;SDS011;7917;50.818;6.972;2024-03-02T03:22:24;3.03;;;2.03;;
15635;SDS011;7917;50.818;6.972;2024-03-02T03:24:50;4.05;;;1.85;;
15635;SDS011;7917;50.818;6.972;2024-03-02T03:27:16;3.00;;;1.70;;
15635;SDS011;7917;50.818;6.972;2024-03-02T03:29:43;2.25;;;1.73;;
15635;SDS011;7917;50.818;6.972;2024-03-02T03:32:10;3.83;;;1.98;;
15635;SDS011;7917;50.818;6.972;2024-03-02T03:34:40;2.53;;;1.90;;
15635;SDS011;7917;50.818;6.972;2024-03-02T03:37:09;2.30;;;1.52;;
15635;SDS011;7917;50.818;6.972;2024-03-02T03:39:36;2.20;;;1.75;;
15635;SDS011;7917;50.818;6.972;2024-03-02T03:42:02;2.53;;;1.85;;
15635;SDS011;7917;50.818;6.972;2024-03-02T03:44:29;1.83;;;1.63;;
15635;SDS011;7917;50.818;6.972;2024-03-02T03:46:55;2.83;;;1.98;;
15635;SDS011;7917;50.818;6.972;2024-03-02T03:49:23;1.88;;;1.65;;
15635;SDS011;7917;50.818;6.972;2024-03-02T03:51:49;2.05;;;1.60;;
15635;SDS011;7917;50.818;6.972;2024-03-02T03:54:15;2.33;;;1.60;;
15635;SDS011;7917;50.818;6.972;2024-03-02T03:56:47;4.85;;;1.77;;
15635;SDS011;7917;50.818;6.972;2024-03-02T03:59:16;3.22;;;1.92;;
15635;SDS011;7917;50.818;6.972;2024-03-02T04:05:06;4.40;;;2.33;;
15635;SDS011;7917;50.818;6.972;2024-03-02T04:07:35;2.33;;;1.95;;
15635;SDS011;7917;50.818;6.972;2024-03-02T04:10:10;3.67;;;2.10;;
15635;SDS011;7917;50.818;6.972;2024-03-02T04:12:37;2.95;;;1.85;;
15635;SDS011;7917;50.818;6.972;2024-03-02T04:15:04;2.80;;;1.92;;
15635;SDS011;7917;50.818;6.972;2024-03-02T04:17:31;2.33;;;1.80;;
15635;SDS011;7917;50.818;6.972;2024-03-02T04:19:59;3.05;;;2.00;;
15635;SDS011;7917;50.818;6.972;2024-03-02T04:22:26;3.25;;;2.00;;
15635;SDS011;7917;50.818;6.972;2024-03-02T04:24:52;3.03;;;1.60;;
15635;SDS011;7917;50.818;6.972;2024-03-02T04:27:19;3.53;;;1.88;;
15635;SDS011;7917;50.818;6.972;2024-03-02T04:29:49;3.83;;;1.70;;
15635;SDS011;7917;50.818;6.972;2024-03-02T04:32:18;2.25;;;1.70;;
15635;SDS011;7917;50.818;6.972;2024-03-02T04:34:45;5.20;;;1.90;;
15635;SDS011;7917;50.818;6.972;2024-03-02T04:37:11;2.28;;;1.50;;
15635;SDS011;7917;50.818;6.972;2024-03-02T04:39:40;2.15;;;1.80;;
15635;SDS011;7917;50.818;6.972;2024-03-02T04:42:06;3.55;;;1.92;;
15635;SDS011;7917;50.818;6.972;2024-03-02T04:44:32;4.60;;;2.13;;
15635;SDS011;7917;50.818;6.972;2024-03-02T04:46:59;2.97;;;2.25;;
15635;SDS011;7917;50.818;6.972;2024-03-02T04:49:25;3.72;;;2.17;;
15635;SDS011;7917;50.818;6.972;2024-03-02T04:51:52;2.05;;;1.73;;
15635;SDS011;7917;50.818;6.972;2024-03-02T04:54:18;2.95;;;1.75;;
15635;SDS011;7917;50.818;6.972;2024-03-02T04:56:45;2.55;;;2.00;;
15635;SDS011;7917;50.818;6.972;2024-03-02T04:59:15;2.03;;;1.63;;
15635;SDS011;7917;50.818;6.972;2024-03-02T05:01:42;5.18;;;2.10;;
15635;SDS011;7917;50.818;6.972;2024-03-02T05:04:08;4.53;;;1.95;;
15635;SDS011;7917;50.818;6.972;2024-03-02T05:06:36;4.38;;;1.70;;
15635;SDS011;7917;50.818;6.972;2024-03-02T05:09:04;2.40;;;2.10;;
15635;SDS011;7917;50.818;6.972;2024-03-02T05:15:14;3.63;;;2.40;;
15635;SDS011;7917;50.818;6.972;2024-03-02T05:17:41;2.42;;;2.05;;
15635;SDS011;7917;50.818;6.972;2024-03-02T05:20:08;2.45;;;2.08;;
15635;SDS011;7917;50.818;6.972;2024-03-02T05:22:35;2.95;;;2.17;;
15635;SDS011;7917;50.818;6.972;2024-03-02T05:25:03;3.10;;;2.17;;
15635;SDS011;7917;50.818;6.972;2024-03-02T05:27:33;6.43;;;2.00;;
15635;SDS011;7917;50.818;6.972;2024-03-02T05:30:00;1.95;;;1.67;;
15635;SDS011;7917;50.818;6.972;2024-03-02T05:32:27;2.88;;;2.10;;
15635;SDS011;7917;50.818;6.972;2024-03-02T05:37:38;3.63;;;2.50;;
15635;SDS011;7917;50.818;6.972;2024-03-02T05:40:08;2.83;;;2.30;;
15635;SDS011;7917;50.818;6.972;2024-03-02T05:42:36;3.05;;;2.33;;
15635;SDS011;7917;50.818;6.972;2024-03-02T05:45:04;2.60;;;2.20;;
15635;SDS011;7917;50.818;6.972;2024-03-02T05:47:31;4.25;;;2.60;;
15635;SDS011;7917;50.818;6.972;2024-03-02T05:50:01;3.17;;;2.42;;
15635;SDS011;7917;50.818;6.972;2024-03-02T05:52:29;3.92;;;2.60;;
15635;SDS011;7917;50.818;6.972;2024-03-02T05:54:55;3.88;;;2.60;;
15635;SDS011;7917;50.818;6.972;2024-03-02T05:57:22;3.78;;;2.47;;
15635;SDS011;7917;50.818;6.972;2024-03-02T06:00:04;2.47;;;2.22;;
15635;SDS011;7917;50.818;6.972;2024-03-02T06:02:33;2.72;;;2.35;;
15635;SDS011;7917;50.818;6.972;2024-03-02T06:05:00;2.47;;;2.20;;
15635;SDS011;7917;50.818;6.972;2024-03-02T06:07:30;3.60;;;2.20;;
15635;SDS011;7917;50.818;6.972;2024-03-02T06:09:58;3.35;;;2.28;;
15635;SDS011;7917;50.818;6.972;2024-03-02T06:12:24;2.72;;;2.35;;
15635;SDS011;7917;50.818;6.972;2024-03-02T06:14:51;3.92;;;2.42;;
15635;SDS011;7917;50.818;6.972;2024-03-02T06:17:17;4.18;;;2.03;;
15635;SDS011;7917;50.818;6.972;2024-03-02T06:19:50;2.33;;;2.13;;
15635;SDS011;7917;50.818;6.972;2024-03-02T06:22:17;3.97;;;1.95;;
15635;SDS011;7917;50.818;6.972;2024-03-02T06:24:44;3.58;;;2.30;;
15635;SDS011;7917;50.818;6.972;2024-03-02T06:27:10;4.45;;;2.05;;
15635;SDS011;7917;50.818;6.972;2024-03-02T06:29:37;2.63;;;2.10;;
15635;SDS011;7917;50.818;6.972;2024-03-02T06:32:04;3.13;;;2.17;;
15635;SDS011;7917;50.818;6.972;2024-03-02T06:34:31;4.90;;;2.13;;
15635;SDS011;7917;50.818;6.972;2024-03-02T06:36:58;2.35;;;2.00;;
15635;SDS011;7917;50.818;6.972;2024-03-02T06:39:24;3.00;;;2.30;;
15635;SDS011;7917;50.818;6.972;2024-03-02T06:41:51;3.67;;;2.25;;
15635;SDS011;7917;50.818;6.972;2024-03-02T06:44:18;4.65;;;1.98;;
15635;SDS011;7917;50.818;6.972;2024-03-02T06:46:44;3.22;;;2.03;;
15635;SDS011;7917;50.818;6.972;2024-03-02T06:49:13;5.00;;;2.30;;
15635;SDS011;7917;50.818;6.972;2024-03-02T06:51:40;3.72;;;2.38;;
15635;SDS011;7917;50.818;6.972;2024-03-02T06:54:08;2.42;;;1.98;;
15635;SDS011;7917;50.818;6.972;2024-03-02T06:56:34;3.17;;;2.50;;
15635;SDS011;7917;50.818;6.972;2024-03-02T06:59:01;3.67;;;2.03;;
15635;SDS011;7917;50.818;6.972;2024-03-02T07:01:27;3.28;;;2.10;;
15635;SDS011;7917;50.818;6.972;2024-03-02T07:03:54;4.35;;;2.60;;
15635;SDS011;7917;50.818;6.972;2024-03-02T07:06:21;4.80;;;2.22;;
15635;SDS011;7917;50.818;6.972;2024-03-02T07:08:47;2.92;;;2.20;;
15635;SDS011;7917;50.818;6.972;2024-03-02T07:11:14;5.80;;;2.88;;
15635;SDS011;7917;50.818;6.972;2024-03-02T07:13:41;6.53;;;3.28;;
15635;SDS011;7917;50.818;6.972;2024-03-02T07:16:08;3.95;;;2.47;;
15635;SDS011;7917;50.818;6.972;2024-03-02T07:19:01;4.05;;;2.63;;
15635;SDS011;7917;50.818;6.972;2024-03-02T07:21:28;2.72;;;2.50;;
15635;SDS011;7917;50.818;6.972;2024-03-02T07:23:54;3.03;;;2.72;;
15635;SDS011;7917;50.818;6.972;2024-03-02T07:26:21;4.22;;;3.15;;
15635;SDS011;7917;50.818;6.972;2024-03-02T07:28:48;4.40;;;2.78;;
15635;SDS011;7917;50.818;6.972;2024-03-02T07:31:15;5.47;;;2.60;;
15635;SDS011;7917;50.818;6.972;2024-03-02T07:33:43;4.93;;;2.72;;
15635;SDS011;7917;50.818;6.972;2024-03-02T07:36:10;4.40;;;2.22;;
15635;SDS011;7917;50.818;6.972;2024-03-02T07:38:37;3.33;;;2.50;;
15635;SDS011;7917;50.818;6.972;2024-03-02T07:41:03;3.05;;;2.30;;
15635;SDS011;7917;50.818;6.972;2024-03-02T07:43:31;4.28;;;2.40;;
15635;SDS011;7917;50.818;6.972;2024-03-02T07:45:58;6.28;;;3.13;;
15635;SDS011;7917;50.818;6.972;2024-03-02T07:48:25;3.45;;;2.05;;
15635;SDS011;7917;50.818;6.972;2024-03-02T07:50:52;3.08;;;2.15;;
15635;SDS011;7917;50.818;6.972;2024-03-02T07:53:18;2.95;;;2.15;;
15635;SDS011;7917;50.818;6.972;2024-03-02T07:55:45;2.15;;;1.85;;
15635;SDS011;7917;50.818;6.972;2024-03-02T07:58:11;2.75;;;1.88;;
15635;SDS011;7917;50.818;6.972;2024-03-02T08:00:39;5.00;;;2.58;;
15635;SDS011;7917;50.818;6.972;2024-03-02T08:03:06;4.18;;;2.17;;
15635;SDS011;7917;50.818;6.972;2024-03-02T08:05:36;5.78;;;1.95;;
15635;SDS011;7917;50.818;6.972;2024-03-02T08:08:21;4.05;;;2.05;;
15635;SDS011;7917;50.818;6.972;2024-03-02T08:10:47;4.10;;;2.45;;
15635;SDS011;7917;50.818;6.972;2024-03-02T08:13:14;4.60;;;2.15;;
15635;SDS011;7917;50.818;6.972;2024-03-02T08:15:42;9.35;;;3.08;;
15635;SDS011;7917;50.818;6.972;2024-03-02T08:18:08;3.38;;;2.20;;
15635;SDS011;7917;50.818;6.972;2024-03-02T08:20:35;4.68;;;2.15;;
15635;SDS011;7917;50.818;6.972;2024-03-02T08:23:02;2.47;;;1.88;;
15635;SDS011;7917;50.818;6.972;2024-03-02T08:25:28;3.75;;;2.45;;
15635;SDS011;7917;50.818;6.972;2024-03-02T08:27:55;5.45;;;3.08;;
15635;SDS011;7917;50.818;6.972;2024-03-02T08:30:22;5.63;;;2.13;;
15635;SDS011;7917;50.818;6.972;2024-03-02T08:32:57;3.92;;;1.70;;
15635;SDS011;7917;50.818;6.972;2024-03-02T08:35:23;4.50;;;2.10;;
15635;SDS011;7917;50.818;6.972;2024-03-02T08:37:50;3.67;;;2.30;;
15635;SDS011;7917;50.818;6.972;2024-03-02T08:40:16;2.70;;;2.08;;
15635;SDS011;7917;50.818;6.972;2024-03-02T08:42:43;3.85;;;1.98;;
15635;SDS011;7917;50.818;6.972;2024-03-02T08:45:11;5.40;;;2.35;;
15635;SDS011;7917;50.818;6.972;2024-03-02T08:47:46;2.58;;;2.08;;
15635;SDS011;7917;50.818;6.972;2024-03-02T08:50:14;3.08;;;2.03;;
15635;SDS011;7917;50.818;6.972;2024-03-02T08:52:41;3.28;;;2.13;;
15635;SDS011;7917;50.818;6.972;2024-03-02T08:55:08;3.47;;;1.67;;
15635;SDS011;7917;50.818;6.972;2024-03-02T08:57:36;4.57;;;1.77;;
15635;SDS011;7917;50.818;6.972;2024-03-02T09:00:03;4.38;;;1.75;;
15635;SDS011;7917;50.818;6.972;2024-03-02T09:02:30;5.53;;;1.80;;
15635;SDS011;7917;50.818;6.972;2024-03-02T09:04:57;3.50;;;2.25;;
15635;SDS011;7917;50.818;6.972;2024-03-02T09:07:28;2.20;;;1.80;;
15635;SDS011;7917;50.818;6.972;2024-03-02T09:09:54;3.72;;;2.00;;
15635;SDS011;7917;50.818;6.972;2024-03-02T09:12:21;2.50;;;1.75;;
15635;SDS011;7917;50.818;6.972;2024-03-02T09:14:48;2.50;;;1.80;;
15635;SDS011;7917;50.818;6.972;2024-03-02T09:20:37;2.65;;;1.98;;
15635;SDS011;7917;50.818;6.972;2024-03-02T09:23:04;3.20;;;2.25;;
15635;SDS011;7917;50.818;6.972;2024-03-02T09:25:31;4.72;;;1.88;;
15635;SDS011;7917;50.818;6.972;2024-03-02T09:27:57;3.75;;;2.10;;
15635;SDS011;7917;50.818;6.972;2024-03-02T09:30:24;6.57;;;2.20;;
15635;SDS011;7917;50.818;6.972;2024-03-02T09:32:50;2.28;;;1.60;;
15635;SDS011;7917;50.818;6.972;2024-03-02T09:35:18;2.00;;;1.70;;
15635;SDS011;7917;50.818;6.972;2024-03-02T09:37:45;3.67;;;2.38;;
15635;SDS011;7917;50.818;6.972;2024-03-02T09:40:13;2.55;;;1.80;;
15635;SDS011;7917;50.818;6.972;2024-03-02T09:42:41;2.72;;;1.95;;
15635;SDS011;7917;50.818;6.972;2024-03-02T09:45:09;4.05;;;1.73;;
15635;SDS011;7917;50.818;6.972;2024-03-02T09:47:36;2.78;;;1.88;;
15635;SDS011;7917;50.818;6.972;2024-03-02T09:50:02;2.33;;;2.00;;
15635;SDS011;7917;50.818;6.972;2024-03-02T09:52:29;6.40;;;2.22;;
15635;SDS011;7917;50.818;6.972;2024-03-02T09:54:57;6.50;;;2.17;;
15635;SDS011;7917;50.818;6.972;2024-03-02T09:57:24;4.07;;;1.80;;
15635;SDS011;7917;50.818;6.972;2024-03-02T09:59:52;2.95;;;2.10;;
15635;SDS011;7917;50.818;6.972;2024-03-02T10:02:19;2.40;;;2.05;;
15635;SDS011;7917;50.818;6.972;2024-03-02T10:04:47;4.07;;;1.98;;
15635;SDS011;7917;50.818;6.972;2024-03-02T10:07:16;3.38;;;1.98;;
15635;SDS011;7917;50.818;6.972;2024-03-02T10:09:44;5.78;;;2.22;;
15635;SDS011;7917;50.818;6.972;2024-03-02T10:12:12;4.22;;;2.10;;
15635;SDS011;7917;50.818;6.972;2024-03-02T10:14:40;4.00;;;2.17;;
15635;SDS011;7917;50.818;6.972;2024-03-02T10:17:07;5.43;;;1.85;;
15635;SDS011;7917;50.818;6.972;2024-03-02T10:19:35;5.45;;;1.88;;
15635;SDS011;7917;50.818;6.972;2024-03-02T10:22:03;3.95;;;2.08;;
15635;SDS011;7917;50.818;6.972;2024-03-02T10:24:40;5.47;;;2.38;;
15635;SDS011;7917;50.818;6.972;2024-03-02T10:27:09;3.65;;;2.00;;
15635;SDS011;7917;50.818;6.972;2024-03-02T10:29:41;2.92;;;1.73;;
15635;SDS011;7917;50.818;6.972;2024-03-02T10:32:09;2.67;;;1.60;;
15635;SDS011;7917;50.818;6.972;2024-03-02T10:34:36;2.60;;;1.83;;
15635;SDS011;7917;50.818;6.972;2024-03-02T10:37:03;4.72;;;2.20;;
15635;SDS011;7917;50.818;6.972;2024-03-02T10:39:32;2.35;;;2.15;;
15635;SDS011;7917;50.818;6.972;2024-03-02T10:42:00;2.55;;;2.15;;
15635;SDS011;7917;50.818;6.972;2024-03-02T10:44:28;3.83;;;1.70;;
15635;SDS011;7917;50.818;6.972;2024-03-02T10:46:57;2.78;;;2.00;;
15635;SDS011;7917;50.818;6.972;2024-03-02T10:49:26;3.08;;;2.17;;
15635;SDS011;7917;50.818;6.972;2024-03-02T10:51:54;3.20;;;1.80;;
15635;SDS011;7917;50.818;6.972;2024-03-02T10:54:21;3.85;;;1.95;;
15635;SDS011;7917;50.818;6.972;2024-03-02T10:56:52;4.28;;;1.98;;
15635;SDS011;7917;50.818;6.972;2024-03-02T10:59:27;2.80;;;1.52;;
15635;SDS011;7917;50.818;6.972;2024-03-02T11:04:43;3.03;;;1.83;;
15635;SDS011;7917;50.818;6.972;2024-03-02T11:07:13;2.88;;;1.80;;
15635;SDS011;7917;50.818;6.972;2024-03-02T11:09:42;2.38;;;1.83;;
15635;SDS011;7917;50.818;6.972;2024-03-02T11:12:19;4.57;;;2.22;;
15635;SDS011;7917;50.818;6.972;2024-03-02T11:14:51;5.53;;;3.00;;
15635;SDS011;7917;50.818;6.972;2024-03-02T11:17:18;2.95;;;1.98;;
15635;SDS011;7917;50.818;6.972;2024-03-02T11:19:46;3.40;;;2.13;;
15635;SDS011;7917;50.818;6.972;2024-03-02T11:22:16;3.97;;;2.00;;
15635;SDS011;7917;50.818;6.972;2024-03-02T11:24:48;3.38;;;2.00;;
15635;SDS011;7917;50.818;6.972;2024-03-02T11:27:20;2.75;;;1.98;;
15635;SDS011;7917;50.818;6.972;2024-03-02T11:33:26;3.80;;;1.98;;
15635;SDS011;7917;50.818;6.972;2024-03-02T11:35:54;3.75;;;1.67;;
15635;SDS011;7917;50.818;6.972;2024-03-02T11:38:32;6.18;;;1.80;;
15635;SDS011;7917;50.818;6.972;2024-03-02T11:41:00;3.08;;;2.08;;
15635;SDS011;7917;50.818;6.972;2024-03-02T11:43:27;4.40;;;2.38;;
15635;SDS011;7917;50.818;6.972;2024-03-02T11:45:57;2.35;;;1.80;;
15635;SDS011;7917;50.818;6.972;2024-03-02T11:48:25;3.67;;;1.83;;
15635;SDS011;7917;50.818;6.972;2024-03-02T11:50:57;3.30;;;1.85;;
15635;SDS011;7917;50.818;6.972;2024-03-02T11:53:26;4.07;;;1.50;;
15635;SDS011;7917;50.818;6.972;2024-03-02T11:55:55;2.08;;;1.50;;
15635;SDS011;7917;50.818;6.972;2024-03-02T11:58:22;1.20;;;1.10;;
15635;SDS011;7917;50.818;6.972;2024-03-02T12:00:50;2.47;;;1.70;;
15635;SDS011;7917;50.818;6.972;2024-03-02T12:03:17;2.28;;;1.42;;
15635;SDS011;7917;50.818;6.972;2024-03-02T12:05:47;3.03;;;1.85;;
15635;SDS011;7917;50.818;6.972;2024-03-02T12:08:15;2.80;;;1.50;;
15635;SDS011;7917;50.818;6.972;2024-03-02T12:10:42;2.15;;;1.65;;
15635;SDS011;7917;50.818;6.972;2024-03-02T12:13:21;2.22;;;1.38;;
15635;SDS011;7917;50.818;6.972;2024-03-02T12:15:48;5.28;;;1.50;;
15635;SDS011;7917;50.818;6.972;2024-03-02T12:18:20;3.70;;;1.10;;
15635;SDS011;7917;50.818;6.972;2024-03-02T12:20:48;4.07;;;1.63;;
15635;SDS011;7917;50.818;6.972;2024-03-02T12:23:17;2.60;;;1.42;;
15635;SDS011;7917;50.818;6.972;2024-03-02T12:25:44;3.40;;;1.70;;
15635;SDS011;7917;50.818;6.972;2024-03-02T12:28:11;3.45;;;1.52;;
15635;SDS011;7917;50.818;6.972;2024-03-02T12:30:39;3.45;;;1.52;;
15635;SDS011;7917;50.818;6.972;2024-03-02T12:33:05;1.50;;;1.13;;
15635;SDS011;7917;50.818;6.972;2024-03-02T12:35:32;3.50;;;1.70;;
15635;SDS011;7917;50.818;6.972;2024-03-02T12:38:00;2.33;;;1.33;;
15635;SDS011;7917;50.818;6.972;2024-03-02T12:40:26;1.90;;;1.45;;
15635;SDS011;7917;50.818;6.972;2024-03-02T12:42:59;2.25;;;1.35;;
15635;SDS011;7917;50.818;6.972;2024-03-02T12:45:26;3.55;;;1.70;;
15635;SDS011;7917;50.818;6.972;2024-03-02T12:47:53;2.70;;;1.98;;
15635;SDS011;7917;50.818;6.972;2024-03-02T12:50:28;2.00;;;1.35;;
15635;SDS011;7917;50.818;6.972;2024-03-02T12:52:56;2.33;;;1.50;;
15635;SDS011;7917;50.818;6.972;2024-03-02T12:55:23;2.38;;;1.60;;
15635;SDS011;7917;50.818;6.972;2024-03-02T12:57:50;1.63;;;1.52;;
15635;SDS011;7917;50.818;6.972;2024-03-02T13:00:18;1.65;;;1.15;;
15635;SDS011;7917;50.818;6.972;2024-03-02T13:02:45;1.58;;;1.20;;
15635;SDS011;7917;50.818;6.972;2024-03-02T13:05:13;1.92;;;1.23;;
15635;SDS011;7917;50.818;6.972;2024-03-02T13:07:42;2.65;;;2.08;;
15635;SDS011;7917;50.818;6.972;2024-03-02T13:10:10;3.38;;;1.67;;
15635;SDS011;7917;50.818;6.972;2024-03-02T13:12:41;2.67;;;1.38;;
15635;SDS011;7917;50.818;6.972;2024-03-02T13:15:08;2.38;;;1.30;;
15635;SDS011;7917;50.818;6.972;2024-03-02T13:17:36;1.50;;;1.20;;
15635;SDS011;7917;50.818;6.972;2024-03-02T13:20:05;1.27;;;1.17;;
15635;SDS011;7917;50.818;6.972;2024-03-02T13:22:35;2.15;;;1.20;;
15635;SDS011;7917;50.818;6.972;2024-03-02T13:25:02;1.88;;;1.30;;
15635;SDS011;7917;50.818;6.972;2024-03-02T13:27:30;1.80;;;0.90;;
15635;SDS011;7917;50.818;6.972;2024-03-02T13:29:58;1.48;;;1.10;;
15635;SDS011;7917;50.818;6.972;2024-03-02T13:32:26;2.47;;;1.30;;
15635;SDS011;7917;50.818;6.972;2024-03-02T13:34:55;3.13;;;1.70;;
15635;SDS011;7917;50.818;6.972;2024-03-02T13:37:22;3.33;;;1.40;;
15635;SDS011;7917;50.818;6.972;2024-03-02T13:39:48;1.67;;;1.08;;
15635;SDS011;7917;50.818;6.972;2024-03-02T13:42:15;2.10;;;1.77;;
15635;SDS011;7917;50.818;6.972;2024-03-02T13:44:43;2.85;;;1.30;;
15635;SDS011;7917;50.818;6.972;2024-03-02T13:47:14;1.70;;;1.17;;
15635;SDS011;7917;50.818;6.972;2024-03-02T13:49:40;1.75;;;1.42;;
15635;SDS011;7917;50.818;6.972;2024-03-02T13:52:09;1.80;;;1.60;;
15635;SDS011;7917;50.818;6.972;2024-03-02T13:54:38;1.70;;;1.10;;
15635;SDS011;7917;50.818;6.972;2024-03-02T13:57:10;3.15;;;1.85;;
15635;SDS011;7917;50.818;6.972;2024-03-02T13:59:45;1.63;;;1.52;;
15635;SDS011;7917;50.818;6.972;2024-03-02T14:02:12;3.67;;;1.55;;
15635;SDS011;7917;50.818;6.972;2024-03-02T14:04:40;3.47;;;2.00;;
15635;SDS011;7917;50.818;6.972;2024-03-02T14:07:07;2.88;;;1.67;;
15635;SDS011;7917;50.818;6.972;2024-03-02T14:09:34;1.95;;;1.33;;
15635;SDS011;7917;50.818;6.972;2024-03-02T14:12:01;1.38;;;1.25;;
15635;SDS011;7917;50.818;6.972;2024-03-02T14:14:30;3.63;;;1.73;;
15635;SDS011;7917;50.818;6.972;2024-03-02T14:16:57;1.58;;;1.30;;
15635;SDS011;7917;50.818;6.972;2024-03-02T14:19:26;1.30;;;1.20;;
15635;SDS011;7917;50.818;6.972;2024-03-02T14:21:53;2.33;;;1.50;;
15635;SDS011;7917;50.818;6.972;2024-03-02T14:24:19;2.83;;;1.20;;
15635;SDS011;7917;50.818;6.972;2024-03-02T14:26:49;1.25;;;1.15;;
15635;SDS011;7917;50.818;6.972;2024-03-02T14:29:15;1.52;;;1.20;;
15635;SDS011;7917;50.818;6.972;2024-03-02T14:31:43;1.73;;;1.17;;
15635;SDS011;7917;50.818;6.972;2024-03-02T14:34:20;2.33;;;1.10;;
15635;SDS011;7917;50.818;6.972;2024-03-02T14:36:50;1.52;;;1.20;;
15635;SDS011;7917;50.818;6.972;2024-03-02T14:39:16;3.25;;;1.70;;
15635;SDS011;7917;50.818;6.972;2024-03-02T14:41:45;2.03;;;1.50;;
15635;SDS011;7917;50.818;6.972;2024-03-02T14:44:13;2.90;;;1.98;;
15635;SDS011;7917;50.818;6.972;2024-03-02T14:46:40;3.08;;;1.60;;
15635;SDS011;7917;50.818;6.972;2024-03-02T14:49:07;1.83;;;1.30;;
15635;SDS011;7917;50.818;6.972;2024-03-02T14:51:36;2.47;;;1.60;;
15635;SDS011;7917;50.818;6.972;2024-03-02T14:54:03;1.77;;;1.67;;
15635;SDS011;7917;50.818;6.972;2024-03-02T14:56:30;4.88;;;2.60;;
15635;SDS011;7917;50.818;6.972;2024-03-02T14:58:59;3.05;;;1.42;;
15635;SDS011;7917;50.818;6.972;2024-03-02T15:01:27;1.60;;;1.50;;
15635;SDS011;7917;50.818;6.972;2024-03-02T15:03:54;2.20;;;1.40;;
15635;SDS011;7917;50.818;6.972;2024-03-02T15:06:21;2.20;;;1.60;;
15635;SDS011;7917;50.818;6.972;2024-03-02T15:08:47;3.17;;;2.30;;
15635;SDS011;7917;50.818;6.972;2024-03-02T15:11:15;3.30;;;2.00;;
15635;SDS011;7917;50.818;6.972;2024-03-02T15:13:42;5.13;;;2.47;;
15635;SDS011;7917;50.818;6.972;2024-03-02T15:16:08;3.83;;;2.33;;
15635;SDS011;7917;50.818;6.972;2024-03-02T15:18:35;2.85;;;1.95;;
15635;SDS011;7917;50.818;6.972;2024-03-02T15:21:02;4.20;;;1.67;;
15635;SDS011;7917;50.818;6.972;2024-03-02T15:23:29;4.72;;;3.55;;
15635;SDS011;7917;50.818;6.972;2024-03-02T15:25:56;3.17;;;2.50;;
15635;SDS011;7917;50.818;6.972;2024-03-02T15:28:23;3.08;;;2.10;;
15635;SDS011;7917;50.818;6.972;2024-03-02T15:30:50;2.90;;;1.65;;